Language selection

Features

My Weather Profile Weather Topics  | 

Bowie - southern half: Past 24 Hour Conditions

 

Masset Municipal Airport

02:00 AM PDT 16 October 2019
Disclaimer

This table is a summary of hourly weather conditions for the past 24 hours.
Please note that these observations might not always be representative of weather conditions over their associated marine area.

Date / Time
(PDT)
Wind(knots) Conditions Visibility(km) Pressure(kPa) Air tempC) Relative humidity(%) Dew pointC)
16 October 2019
2:00 SSE 15 N/A N/A 99.1 12 96 12
1:00 SE 8 gust 15 N/A N/A 99.1 12 97 12
0:00 SSE 13 gust 24 N/A N/A 99.1 12 97 12
15 October 2019
23:00 SSE 18 gust 26 N/A N/A 99.1 12 94 11
22:00 SSE 15 gust 21 N/A N/A 99.1 12 89 10
21:00 SSE 13 gust 19 N/A N/A 99.1 12 91 10
20:00 SSE 15 gust 21 N/A N/A 99.0 12 91 11
19:00 SSE 12 gust 18 N/A N/A 99.0 12 92 11
18:00 SSE 15 gust 22 Light Rainshower 16 98.9 12 92 11
17:00 SSE 17 gust 25 Light Rainshower 16 98.9 12 94 11
16:00 SSE 20 gust 30 Light Rainshower 16 98.9 12 89 10
15:00 SSE 18 gust 29 Mostly Cloudy 24 99.0 12 91 10
14:00 SSE 18 gust 25 Mostly Cloudy 24 99.1 12 90 10
13:00 SE 15 gust 24 Mostly Cloudy 24 99.1 12 91 10
12:00 SSE 12 gust 19 Partly Cloudy 24 99.2 12 89 10
11:00 S 10 gust 15 Light Rain 16 99.1 12 97 11
10:00 SSE 8 Light Rainshower 16 99.1 11 97 11
9:00 SSE 11 Light Rain 16 99.2 11 99 11
8:00 SSE 10 gust 19 Light Rainshower 16 99.3 11 98 11
7:00 SSE 15 gust 25 Light Rain 13 99.3 11 97 11
6:00 SSE 18 gust 29 N/A N/A 99.4 11 94 11
5:00 SSE 19 gust 28 N/A N/A 99.4 12 97 11
4:00 SSE 23 gust 34 N/A N/A 99.5 12 97 11
3:00 SSE 22 gust 33 N/A N/A 99.5 12 97 12
2:00 SSE 22 gust 36 N/A N/A 99.5 12 98 11

Zoom-in to make a selection

Map of Pacific - North Coast marine weather areas Middle Nomad - 46004 South Nomad - 46036 Dixon Entrance Central - 46145 South Moresby - 46147 Nanakwa Shoal - 46181 North Hecate Strait - 46183 North Nomad - 46184 South Hecate Strait - 46185 West Sea Otter - 46204 West Dixon Entrance - 46205 East Dellwood - 46207 West Moresby - 46208 Sartine Island Cape St.James Kindakun Rocks Langara Island Masset Municipal Airport Rose Spit Sandspit Airport Bella Bella Airport Bella Coola Airport Bonilla Island Cathedral Point Cumshewa Island Grey Islet Holland Rock Lucy Islands Lightstation Prince Rupert Airport
Legend:
buoy Buoy
land station Land Station

Pacific - North Coast Area

Another Region

What we are doing

Date modified: